Time;durP1;ratioP1;P1;durP2;ratioP2;P2;SDS_P1;SDS_P2;PMS_P1;PMS_P2;Temp;Humidity;BMP_temperature;BMP_pressure;BME280_temperature;BME280_humidity;BME280_pressure;Samples;Min_cycle;Max_cycle;Signal;HPM_P1;HPM_P2
2023/04/02 00:01:01;;;;;;;2.10;1.23;;;;;;;;;;5049587;28;20037;-48
2023/04/02 00:03:43;;;;;;;0.93;0.93;;;;;;;;;;5050644;28;20037;-50
2023/04/02 00:06:32;;;;;;;2.42;1.30;;;;;;;;;;5053370;28;20032;-49
2023/04/02 00:09:03;;;;;;;1.92;1.58;;;;;;;;;;5027274;28;20038;-48
2023/04/02 00:11:32;;;;;;;1.55;1.25;;;;;;;;;;5026989;28;20052;-49
2023/04/02 00:14:00;;;;;;;0.60;0.60;;;;;;;;;;5027011;28;20046;-49
2023/04/02 00:16:26;;;;;;;0.75;0.65;;;;;;;;;;5027713;28;20100;-49
2023/04/02 00:18:54;;;;;;;4.15;2.05;;;;;;;;;;5009787;28;20040;-50
2023/04/02 00:21:34;;;;;;;4.60;3.78;;;;;;;;;;5010839;28;20505;-50
2023/04/02 00:24:01;;;;;;;9.25;4.22;;;;;;;;;;5027207;28;20058;-51
2023/04/02 00:26:30;;;;;;;10.40;5.72;;;;;;;;;;5010529;28;20042;-50
2023/04/02 00:28:56;;;;;;;8.30;6.72;;;;;;;;;;5028028;28;20116;-49
2023/04/02 00:31:23;;;;;;;10.70;6.65;;;10.60;99.90;;;;;;5026985;28;20065;-49
2023/04/02 00:33:49;;;;;;;11.65;6.53;;;;;;;;;;5027478;28;20052;-48
2023/04/02 00:36:18;;;;;;;11.50;5.05;;;;;;;;;;5015079;28;20415;-49
2023/04/02 00:38:45;;;;;;;7.72;5.65;;;;;;;;;;5013742;28;20041;-49
2023/04/02 00:41:21;;;;;;;11.93;6.53;;;10.00;99.90;;;;;;5014324;28;20036;-50
2023/04/02 00:43:51;;;;;;;11.85;7.25;;;9.90;99.90;;;;;;5013541;28;20037;-51
2023/04/02 00:46:23;;;;;;;11.80;6.75;;;9.80;99.90;;;;;;5023646;28;20060;-48
2023/04/02 00:49:09;;;;;;;5.50;3.75;;;9.50;99.90;;;;;;5039867;28;20366;-50
2023/04/02 00:51:54;;;;;;;8.55;3.58;;;9.50;99.90;;;;;;5045199;28;20034;-51
2023/04/02 00:54:22;;;;;;;6.47;4.45;;;;;;;;;;5031047;28;20030;-49
2023/04/02 00:56:53;;;;;;;7.13;3.33;;;9.50;99.90;;;;;;5041883;28;20363;-48
2023/04/02 00:59:32;;;;;;;1.43;1.33;;;9.30;99.90;;;;;;5045720;28;20425;-49
2023/04/02 01:02:18;;;;;;;1.50;1.40;;;;;;;;;;5034708;28;20033;-50
2023/04/02 01:04:53;;;;;;;5.15;2.22;;;;;;;;;;5050618;28;20104;-48
2023/04/02 01:07:23;;;;;;;2.85;1.77;;;;;;;;;;5035531;28;20401;-48
2023/04/02 01:10:16;;;;;;;5.50;2.67;;;9.30;99.90;;;;;;5080871;28;20135;-50
2023/04/02 01:13:00;;;;;;;2.45;1.85;;;9.30;99.90;;;;;;5036737;28;20346;-50
2023/04/02 01:15:36;;;;;;;5.40;2.60;;;9.40;99.90;;;;;;5067320;28;20047;-50
2023/04/02 01:18:30;;;;;;;1.98;1.70;;;9.40;99.90;;;;;;5028808;28;20097;-49
2023/04/02 01:21:20;;;;;;;3.15;2.33;;;9.60;99.90;;;;;;5045357;28;20071;-48
2023/04/02 01:23:59;;;;;;;2.40;2.20;;;9.90;99.90;;;;;;5038204;28;20041;-49
2023/04/02 01:27:18;;;;;;;2.42;1.73;;;9.90;99.90;;;;;;5044691;28;20033;-51
2023/04/02 01:29:52;;;;;;;2.85;1.67;;;10.00;99.90;;;;;;5013025;28;20034;-48
2023/04/02 01:32:20;;;;;;;3.60;2.95;;;9.90;99.90;;;;;;5012471;28;20367;-47
2023/04/02 01:34:48;;;;;;;3.33;3.00;;;9.90;99.90;;;;;;4997551;28;20505;-48
2023/04/02 01:37:35;;;;;;;4.13;3.13;;;9.90;99.90;;;;;;5012491;28;20042;-51
2023/04/02 01:40:16;;;;;;;3.75;2.92;;;9.90;99.90;;;;;;5012535;28;20399;-49
2023/04/02 01:42:56;;;;;;;3.38;2.13;;;9.90;99.90;;;;;;5011202;28;20061;-48
2023/04/02 01:45:23;;;;;;;3.08;2.15;;;9.90;99.90;;;;;;5012357;28;20508;-48
2023/04/02 01:47:50;;;;;;;1.73;1.63;;;9.90;99.90;;;;;;5012069;28;20444;-51
2023/04/02 01:50:37;;;;;;;2.88;1.80;;;9.90;99.90;;;;;;5012517;28;20061;-51
2023/04/02 01:53:14;;;;;;;2.50;2.30;;;9.90;99.90;;;;;;5008977;28;20057;-51
2023/04/02 01:55:53;;;;;;;7.38;3.95;;;9.80;99.90;;;;;;5012449;28;20563;-51
2023/04/02 01:58:25;;;;;;;4.72;3.33;;;9.80;99.90;;;;;;5012913;28;20811;-51
2023/04/02 02:00:53;;;;;;;5.07;3.10;;;9.60;99.90;;;;;;5012386;28;20033;-49
2023/04/02 02:03:20;;;;;;;2.00;1.80;;;9.50;99.90;;;;;;5012881;28;20122;-50
2023/04/02 02:05:46;;;;;;;2.33;1.45;;;9.20;99.90;;;;;;5056419;28;20061;-51
2023/04/02 02:08:31;;;;;;;1.17;1.13;;;;;;;;;;5046937;28;20041;-52
2023/04/02 02:10:57;;;;;;;1.50;1.20;;;8.20;99.90;;;;;;5037146;28;20048;-49
2023/04/02 02:13:24;;;;;;;0.98;0.93;;;8.20;99.90;;;;;;5027844;28;20457;-49
2023/04/02 02:15:50;;;;;;;1.63;1.52;;;8.10;99.90;;;;;;5033451;28;20171;-49
2023/04/02 02:18:22;;;;;;;1.23;1.10;;;8.40;99.90;;;;;;5036306;28;20468;-51
2023/04/02 02:20:47;;;;;;;;;;;8.30;99.90;;;;;;5029553;28;20367;-49
2023/04/02 02:23:14;;;;;;;1.67;1.02;;;8.40;99.90;;;;;;5040599;28;19916;-51
2023/04/02 02:25:40;;;;;;;1.67;1.08;;;8.30;99.90;;;;;;5041587;28;20064;-51
2023/04/02 02:28:11;;;;;;;3.00;1.90;;;8.60;99.90;;;;;;5036682;28;20519;-49
2023/04/02 02:30:49;;;;;;;4.10;2.03;;;8.60;99.90;;;;;;5034141;28;20117;-51
2023/04/02 02:33:24;;;;;;;4.03;3.00;;;8.50;99.90;;;;;;5037338;28;20053;-50
2023/04/02 02:35:56;;;;;;;1.83;1.67;;;8.60;99.90;;;;;;5042444;28;20041;-50
2023/04/02 02:38:27;;;;;;;2.72;2.28;;;8.60;99.90;;;;;;5038838;28;20096;-50
2023/04/02 02:40:59;;;;;;;2.00;1.83;;;8.50;99.90;;;;;;5048240;28;20107;-51
2023/04/02 02:43:26;;;;;;;2.50;2.30;;;8.40;99.90;;;;;;5026782;28;20096;-50
2023/04/02 02:45:54;;;;;;;7.95;4.18;;;8.40;99.90;;;;;;5040743;28;20025;-50
2023/04/02 02:48:36;;;;;;;5.05;2.85;;;8.40;99.90;;;;;;5035311;28;20615;-50
2023/04/02 02:51:06;;;;;;;8.35;3.70;;;8.40;99.90;;;;;;5096503;27;20041;-51
2023/04/02 02:53:32;;;;;;;5.95;3.58;;;8.60;99.90;;;;;;5036369;28;20030;-51
2023/04/02 02:56:00;;;;;;;2.28;2.08;;;8.80;99.90;;;;;;5034905;28;20120;-51
2023/04/02 02:58:30;;;;;;;3.50;2.72;;;8.90;99.90;;;;;;5036185;28;20115;-48
2023/04/02 03:00:56;;;;;;;2.38;1.50;;;9.00;99.90;;;;;;5037528;28;20408;-51
2023/04/02 03:03:27;;;;;;;3.35;1.67;;;9.00;99.90;;;;;;5056978;28;20038;-49
2023/04/02 03:05:58;;;;;;;2.88;1.85;;;9.10;99.90;;;;;;5062254;28;20385;-48
2023/04/02 03:09:01;;;;;;;3.70;2.05;;;9.20;99.90;;;;;;5030455;28;20029;-48
2023/04/02 03:11:44;;;;;;;1.52;1.35;;;9.10;99.90;;;;;;5030181;28;20071;-47
2023/04/02 03:14:30;;;;;;;1.98;1.73;;;9.20;99.90;;;;;;5031560;28;20029;-49
2023/04/02 03:17:03;;;;;;;1.63;1.52;;;9.10;99.90;;;;;;5035931;28;20542;-47
2023/04/02 03:19:38;;;;;;;3.45;1.40;;;9.10;99.90;;;;;;5036449;28;20409;-48
2023/04/02 03:22:15;;;;;;;1.30;1.20;;;9.00;99.90;;;;;;5037165;28;20025;-48
2023/04/02 03:24:44;;;;;;;2.28;2.08;;;9.00;99.90;;;;;;5031796;28;20076;-49
2023/04/02 03:27:18;;;;;;;2.70;1.30;;;8.90;99.90;;;;;;5032483;28;20103;-48
2023/04/02 03:30:08;;;;;;;1.08;0.98;;;8.80;99.90;;;;;;5026954;28;20037;-48
2023/04/02 03:32:38;;;;;;;1.33;1.23;;;8.80;99.90;;;;;;5034694;28;20087;-49
2023/04/02 03:35:23;;;;;;;0.93;0.93;;;8.80;99.90;;;;;;5034810;28;20029;-48
2023/04/02 03:38:04;;;;;;;1.02;0.90;;;8.70;99.90;;;;;;5041342;28;20021;-48
2023/04/02 03:40:57;;;;;;;0.80;0.80;;;8.70;99.90;;;;;;5027244;28;20034;-49
2023/04/02 03:43:25;;;;;;;0.43;0.35;;;8.60;99.90;;;;;;5028792;28;20073;-48
2023/04/02 03:46:12;;;;;;;0.75;0.75;;;8.60;99.90;;;;;;5045336;28;20448;-51
2023/04/02 03:48:46;;;;;;;0.50;0.50;;;8.40;99.90;;;;;;5039890;28;20036;-52
2023/04/02 03:51:29;;;;;;;0.50;0.50;;;8.40;99.90;;;;;;5032249;28;20108;-51
2023/04/02 03:53:55;;;;;;;2.20;1.38;;;8.40;99.90;;;;;;5028648;28;20036;-47
2023/04/02 03:56:30;;;;;;;1.67;0.80;;;8.40;99.90;;;;;;5030372;28;20022;-50
2023/04/02 03:59:43;;;;;;;0.52;0.52;;;8.50;99.90;;;;;;5047696;28;20102;-50
2023/04/02 04:02:18;;;;;;;0.45;0.45;;;8.50;99.90;;;;;;4997837;28;20126;-49
2023/04/02 04:04:45;;;;;;;1.33;1.23;;;8.60;99.90;;;;;;4998504;28;20046;-50
2023/04/02 04:07:28;;;;;;;1.55;0.60;;;8.60;99.90;;;;;;4949839;28;20034;-51
2023/04/02 04:09:55;;;;;;;0.80;0.80;;;8.70;99.90;;;;;;4990557;28;20033;-49
2023/04/02 04:12:33;;;;;;;1.00;0.70;;;8.80;99.90;;;;;;4999410;28;20078;-50
2023/04/02 04:15:44;;;;;;;0.55;0.45;;;8.90;99.90;;;;;;4995956;28;20022;-51
2023/04/02 04:18:41;;;;;;;1.42;0.73;;;9.10;99.90;;;;;;4923518;29;20040;-50
2023/04/02 04:21:29;;;;;;;0.90;0.88;;;9.20;99.90;;;;;;4916614;29;20067;-49
2023/04/02 04:24:02;;;;;;;0.90;0.80;;;9.30;99.90;;;;;;4924751;29;20047;-49
2023/04/02 04:26:38;;;;;;;3.60;0.68;;;9.30;99.90;;;;;;4922982;29;20044;-49
2023/04/02 04:29:44;;;;;;;0.63;0.63;;;9.40;99.90;;;;;;4925558;29;20063;-50
2023/04/02 04:32:33;;;;;;;0.88;0.88;;;9.50;99.90;;;;;;4919697;29;20137;-49
2023/04/02 04:35:07;;;;;;;0.70;0.70;;;9.60;99.90;;;;;;4925026;29;20079;-49
2023/04/02 04:37:39;;;;;;;1.05;0.90;;;9.60;99.90;;;;;;4934636;28;20034;-51
2023/04/02 04:40:27;;;;;;;0.85;0.85;;;9.70;99.90;;;;;;4962844;28;20067;-51
2023/04/02 04:42:58;;;;;;;1.17;0.70;;;9.70;99.90;;;;;;4959354;28;20054;-52
2023/04/02 04:45:49;;;;;;;0.43;0.43;;;9.80;99.90;;;;;;4945903;29;20090;-54
2023/04/02 04:48:25;;;;;;;0.63;0.60;;;9.90;99.90;;;;;;4956025;28;20042;-58
2023/04/02 04:51:04;;;;;;;1.00;1.00;;;10.00;99.90;;;;;;4967386;28;20193;-51
2023/04/02 04:53:30;;;;;;;3.22;0.90;;;10.10;99.90;;;;;;4959991;28;20023;-50
2023/04/02 04:56:02;;;;;;;0.73;0.73;;;10.10;99.90;;;;;;5029422;28;20072;-50
2023/04/02 04:58:39;;;;;;;1.83;1.38;;;10.20;99.90;;;;;;5050460;28;20052;-50
2023/04/02 05:01:22;;;;;;;1.42;1.08;;;10.30;99.90;;;;;;5051193;28;20045;-49
2023/04/02 05:04:02;;;;;;;1.00;0.88;;;10.40;99.90;;;;;;5058105;28;20187;-50
2023/04/02 05:06:31;;;;;;;0.77;0.77;;;10.40;99.90;;;;;;5046790;28;20048;-52
2023/04/02 05:09:03;;;;;;;0.70;0.60;;;10.50;99.90;;;;;;5043113;28;20043;-49
2023/04/02 05:11:32;;;;;;;0.70;0.70;;;10.60;99.90;;;;;;5057074;28;20036;-49
2023/04/02 05:14:02;;;;;;;1.02;0.93;;;10.70;99.90;;;;;;5018086;28;20045;-49
2023/04/02 05:16:50;;;;;;;1.05;0.70;;;10.80;99.90;;;;;;5004500;28;20393;-51
2023/04/02 05:19:28;;;;;;;1.45;1.35;;;10.90;99.90;;;;;;5013972;28;20026;-51
2023/04/02 05:22:38;;;;;;;0.60;0.60;;;11.10;99.90;;;;;;5029243;28;20033;-52
2023/04/02 05:25:23;;;;;;;1.25;1.15;;;11.30;99.90;;;;;;4970198;28;20130;-51
2023/04/02 05:27:56;;;;;;;1.40;1.17;;;11.40;99.90;;;;;;4970170;28;20026;-50
2023/04/02 05:30:21;;;;;;;1.08;0.80;;;11.50;99.90;;;;;;4954299;28;20398;-49
2023/04/02 05:32:51;;;;;;;0.75;0.68;;;;;;;;;;4944332;29;20122;-51
2023/04/02 05:35:18;;;;;;;1.33;1.05;;;;;;;;;;4961216;28;20028;-50
2023/04/02 05:37:45;;;;;;;2.85;2.30;;;11.40;99.90;;;;;;4948103;28;20119;-51
2023/04/02 05:40:19;;;;;;;1.15;1.00;;;;;;;;;;4950650;29;20039;-49
2023/04/02 05:42:48;;;;;;;3.65;1.90;;;;;;;;;;4965753;28;20039;-49
2023/04/02 05:45:20;;;;;;;2.30;1.10;;;;;;;;;;4976297;28;20054;-49
2023/04/02 05:47:48;;;;;;;1.27;1.17;;;;;;;;;;4997688;28;20057;-51
2023/04/02 05:50:14;;;;;;;0.90;0.85;;;;;;;;;;4970913;28;20038;-49
2023/04/02 05:52:46;;;;;;;1.70;1.38;;;;;;;;;;4947520;28;20134;-51
2023/04/02 05:55:12;;;;;;;1.38;1.20;;;;;;;;;;4987553;28;20037;-50
2023/04/02 05:57:41;;;;;;;1.38;1.27;;;;;;;;;;5023350;28;20489;-49
2023/04/02 06:00:13;;;;;;;1.45;1.35;;;;;;;;;;5025102;28;20037;-50
2023/04/02 06:02:52;;;;;;;0.63;0.63;;;;;;;;;;4996443;28;20041;-50
2023/04/02 06:05:23;;;;;;;0.93;0.93;;;;;;;;;;5021404;28;20053;-50
2023/04/02 06:07:53;;;;;;;2.40;2.13;;;;;;;;;;5020935;28;20076;-50
2023/04/02 06:10:25;;;;;;;2.28;1.88;;;;;;;;;;5027555;28;20030;-51
2023/04/02 06:12:54;;;;;;;2.33;2.10;;;;;;;;;;5021226;28;20063;-49
2023/04/02 06:15:21;;;;;;;1.60;1.20;;;;;;;;;;5024453;28;20117;-51
2023/04/02 06:17:47;;;;;;;1.77;1.23;;;;;;;;;;5008116;28;20382;-51
2023/04/02 06:20:16;;;;;;;1.85;1.08;;;11.70;99.90;;;;;;5029668;28;20044;-49
2023/04/02 06:22:47;;;;;;;3.42;1.95;;;11.70;99.90;;;;;;5042633;28;20484;-49
2023/04/02 06:25:21;;;;;;;3.75;1.38;;;11.80;99.90;;;;;;5040105;28;20120;-50
2023/04/02 06:27:49;;;;;;;1.05;0.95;;;11.80;99.90;;;;;;5036051;28;20347;-50
2023/04/02 06:30:23;;;;;;;1.42;0.98;;;11.80;99.90;;;;;;5037313;28;20086;-50
2023/04/02 06:32:49;;;;;;;2.97;1.67;;;11.80;99.90;;;;;;5035326;28;20028;-49
2023/04/02 06:35:15;;;;;;;0.98;0.98;;;11.80;99.90;;;;;;5040337;28;20029;-49
2023/04/02 06:37:45;;;;;;;1.05;0.82;;;11.70;99.90;;;;;;5050961;28;20125;-49
2023/04/02 06:40:24;;;;;;;1.25;1.15;;;11.70;99.90;;;;;;5028324;28;20470;-49
2023/04/02 06:42:56;;;;;;;2.15;0.85;;;11.80;99.90;;;;;;5037357;28;20029;-49
2023/04/02 06:45:27;;;;;;;1.27;1.17;;;11.90;99.90;;;;;;5038601;28;20045;-49
2023/04/02 06:47:55;;;;;;;1.02;0.90;;;12.20;99.90;;;;;;5037184;28;20029;-50
2023/04/02 06:50:25;;;;;;;1.25;0.95;;;12.30;99.90;;;;;;5029662;28;20071;-49
2023/04/02 06:52:52;;;;;;;1.10;1.02;;;12.40;99.90;;;;;;5036235;28;20503;-50
2023/04/02 06:55:28;;;;;;;1.15;0.85;;;;;;;;;;5070499;28;20041;-50
2023/04/02 06:57:53;;;;;;;1.33;1.02;;;13.00;99.90;;;;;;5038498;28;20393;-50
2023/04/02 07:00:35;;;;;;;1.02;0.98;;;12.90;99.90;;;;;;5029028;28;20034;-51
2023/04/02 07:03:05;;;;;;;1.73;0.85;;;13.00;99.90;;;;;;5031591;28;20033;-50
2023/04/02 07:05:31;;;;;;;1.60;1.30;;;12.90;99.90;;;;;;5035728;28;20038;-50
2023/04/02 07:07:57;;;;;;;1.52;1.42;;;13.10;99.90;;;;;;5055352;28;20051;-49
2023/04/02 07:10:23;;;;;;;1.58;1.00;;;;;;;;;;5041090;28;20400;-49
2023/04/02 07:12:49;;;;;;;0.90;0.85;;;;;;;;;;5031492;28;20028;-49
2023/04/02 07:15:16;;;;;;;1.52;1.10;;;;;;;;;;5038816;28;20040;-51
2023/04/02 07:17:42;;;;;;;1.33;1.13;;;14.00;99.90;;;;;;5068730;28;20083;-50
2023/04/02 07:20:24;;;;;;;1.23;0.70;;;13.80;99.90;;;;;;5033642;28;20076;-50
2023/04/02 07:22:51;;;;;;;1.02;0.90;;;;;;;;;;5039632;28;20072;-51
2023/04/02 07:25:16;;;;;;;2.70;0.77;;;14.20;99.90;;;;;;5038245;28;20453;-50
2023/04/02 07:27:42;;;;;;;0.50;0.30;;;14.30;99.90;;;;;;5038687;28;20060;-49
2023/04/02 07:30:08;;;;;;;0.70;0.70;;;14.30;99.90;;;;;;5035724;28;20064;-50
2023/04/02 07:32:34;;;;;;;0.50;0.50;;;14.70;99.90;;;;;;5027162;28;20125;-49
2023/04/02 07:35:00;;;;;;;2.17;0.82;;;;;;;;;;5044525;28;20040;-49
2023/04/02 07:37:26;;;;;;;0.63;0.63;;;;;;;;;;5072056;28;21086;-49
2023/04/02 07:39:52;;;;;;;0.52;0.52;;;14.90;99.90;;;;;;5037808;28;20029;-49
2023/04/02 07:42:18;;;;;;;0.50;0.50;;;14.80;99.90;;;;;;5066374;28;20487;-51
2023/04/02 07:44:43;;;;;;;1.27;0.52;;;14.70;99.90;;;;;;5043228;28;20494;-52
2023/04/02 07:47:09;;;;;;;0.30;0.30;;;14.70;99.90;;;;;;5037739;28;20025;-51
2023/04/02 07:49:35;;;;;;;0.50;0.50;;;15.00;99.90;;;;;;5039589;28;20029;-50
2023/04/02 07:52:01;;;;;;;0.77;0.30;;;15.40;99.90;;;;;;5043411;28;20435;-51
2023/04/02 07:54:27;;;;;;;0.52;0.20;;;15.30;99.90;;;;;;5046228;28;20071;-50
2023/04/02 07:56:53;;;;;;;0.22;0.22;;;;;;;;;;5039217;28;20048;-49
2023/04/02 07:59:18;;;;;;;0.43;0.40;;;15.70;99.90;;;;;;5041393;28;20033;-49
2023/04/02 08:01:44;;;;;;;0.20;0.20;;;15.90;99.90;;;;;;5043720;28;20342;-49
2023/04/02 08:04:18;;;;;;;0.30;0.30;;;15.80;99.90;;;;;;5041736;28;20136;-50
2023/04/02 08:06:45;;;;;;;0.30;0.30;;;15.70;99.90;;;;;;5038011;28;20026;-50
2023/04/02 08:09:11;;;;;;;0.55;0.40;;;15.80;99.90;;;;;;5045735;28;20167;-49
2023/04/02 08:11:37;;;;;;;0.57;0.52;;;16.20;99.90;;;;;;5036800;28;20112;-50
2023/04/02 08:14:03;;;;;;;0.20;0.20;;;16.40;99.90;;;;;;5053546;28;20033;-48
2023/04/02 08:16:43;;;;;;;0.47;0.47;;;16.20;99.90;;;;;;5037214;28;20500;-50
2023/04/02 08:19:09;;;;;;;0.30;0.30;;;16.70;99.90;;;;;;5040064;28;20342;-49
2023/04/02 08:21:35;;;;;;;0.55;0.55;;;;;;;;;;5051877;28;20048;-50
2023/04/02 08:24:02;;;;;;;0.15;0.15;;;;;;;;;;5033066;28;20049;-49
2023/04/02 08:26:28;;;;;;;0.65;0.60;;;17.70;99.90;;;;;;5040212;28;20037;-48
2023/04/02 08:28:54;;;;;;;0.98;0.68;;;17.70;99.90;;;;;;5069396;28;20046;-48
2023/04/02 08:31:19;;;;;;;0.38;0.38;;;17.80;99.90;;;;;;5036227;28;20037;-47
2023/04/02 08:33:45;;;;;;;0.93;0.55;;;18.10;99.90;;;;;;5039994;28;20356;-49
2023/04/02 08:36:16;;;;;;;0.30;0.30;;;18.40;99.90;;;;;;5039046;28;20028;-48
2023/04/02 08:38:42;;;;;;;0.82;0.60;;;18.50;99.90;;;;;;5043551;28;20026;-48
2023/04/02 08:41:26;;;;;;;0.63;0.50;;;18.60;99.90;;;;;;5044237;28;20032;-47
2023/04/02 08:44:10;;;;;;;0.40;0.40;;;18.50;99.90;;;;;;5036388;28;20084;-49
2023/04/02 08:47:02;;;;;;;0.57;0.55;;;18.80;99.90;;;;;;5038617;28;20033;-47
2023/04/02 08:50:02;;;;;;;0.63;0.63;;;18.90;99.90;;;;;;5044732;28;20033;-49
2023/04/02 08:52:32;;;;;;;2.35;0.63;;;19.00;99.90;;;;;;5003803;28;20038;-49
2023/04/02 08:55:03;;;;;;;0.30;0.30;;;19.30;99.90;;;;;;5003156;28;20037;-48
2023/04/02 08:57:47;;;;;;;0.45;0.43;;;19.10;99.90;;;;;;5005703;28;20049;-49
2023/04/02 09:00:25;;;;;;;0.80;0.68;;;;;;;;;;5009286;28;20198;-47
2023/04/02 09:02:55;;;;;;;0.70;0.40;;;;;;;;;;5002919;28;20995;-48
2023/04/02 09:05:25;;;;;;;0.70;0.70;;;;;;;;;;5004307;28;20104;-49
2023/04/02 09:07:53;;;;;;;0.70;0.70;;;;;;;;;;5006419;28;20045;-47
2023/04/02 09:10:19;;;;;;;0.20;0.20;;;;;;;;;;5010712;28;20172;-47
2023/04/02 09:12:47;;;;;;;0.20;0.20;;;;;;;;;;5009001;28;20043;-48
2023/04/02 09:15:13;;;;;;;0.75;0.50;;;;;;;;;;5010423;28;20053;-50
2023/04/02 09:17:40;;;;;;;0.32;0.32;;;;;;;;;;5003368;28;20018;-49
2023/04/02 09:20:16;;;;;;;0.60;0.60;;;;;;;;;;5010411;28;20113;-51
2023/04/02 09:22:49;;;;;;;0.45;0.45;;;19.70;99.90;;;;;;4998592;28;20038;-50
2023/04/02 09:25:25;;;;;;;0.30;0.30;;;19.60;99.90;;;;;;5003021;28;20034;-49
2023/04/02 09:27:54;;;;;;;0.50;0.50;;;19.60;99.90;;;;;;5015086;28;20044;-50
2023/04/02 09:30:32;;;;;;;1.10;0.68;;;19.70;99.90;;;;;;5046642;28;20396;-52
2023/04/02 09:33:06;;;;;;;1.00;0.50;;;19.90;99.90;;;;;;5031674;28;20464;-50
2023/04/02 09:35:33;;;;;;;0.50;0.50;;;;;;;;;;5035473;28;20029;-51
2023/04/02 09:38:19;;;;;;;0.40;0.40;;;;;;;;;;5062040;28;20037;-49
2023/04/02 09:40:48;;;;;;;0.50;0.50;;;20.10;99.90;;;;;;5037721;28;20067;-53
2023/04/02 09:43:20;;;;;;;0.60;0.60;;;20.30;99.90;;;;;;5033630;28;20060;-49
2023/04/02 09:46:17;;;;;;;0.82;0.68;;;20.80;99.90;;;;;;5039195;28;20021;-49
2023/04/02 09:48:45;;;;;;;0.68;0.68;;;;;;;;;;5038302;28;20057;-51
2023/04/02 09:51:21;;;;;;;0.60;0.52;;;;;;;;;;5036110;28;20025;-52
2023/04/02 09:53:49;;;;;;;1.17;0.82;;;;;;;;;;5043475;28;20021;-51
2023/04/02 09:56:23;;;;;;;0.50;0.50;;;20.80;99.90;;;;;;5032904;28;20462;-50
2023/04/02 09:59:12;;;;;;;0.70;0.40;;;19.90;99.90;;;;;;5036062;28;20040;-51
2023/04/02 10:01:49;;;;;;;0.52;0.52;;;19.70;99.90;;;;;;5034318;28;20026;-49
2023/04/02 10:04:44;;;;;;;0.47;0.47;;;20.20;99.90;;;;;;5024858;28;20410;-51
2023/04/02 10:07:33;;;;;;;0.65;0.65;;;19.80;99.90;;;;;;5031783;28;20061;-50
2023/04/02 10:10:03;;;;;;;1.00;0.90;;;20.30;99.90;;;;;;5039897;28;20032;-50
2023/04/02 10:12:34;;;;;;;0.70;0.70;;;;;;;;;;5033866;28;20025;-49
2023/04/02 10:15:02;;;;;;;0.52;0.50;;;21.70;99.90;;;;;;5029555;28;20112;-51
2023/04/02 10:17:30;;;;;;;1.23;0.70;;;;;;;;;;5039215;28;20052;-49
2023/04/02 10:20:05;;;;;;;1.00;0.90;;;21.60;99.90;;;;;;5046664;28;20064;-49
2023/04/02 10:22:31;;;;;;;0.88;0.80;;;21.50;99.90;;;;;;5021031;28;20038;-50
2023/04/02 10:25:00;;;;;;;0.52;0.40;;;22.10;99.90;;;;;;5063298;28;20072;-49
2023/04/02 10:27:47;;;;;;;0.75;0.43;;;21.70;99.90;;;;;;5032174;28;20022;-51
2023/04/02 10:30:28;;;;;;;0.57;0.57;;;21.40;99.90;;;;;;5034202;28;20547;-49
2023/04/02 10:33:02;;;;;;;0.55;0.40;;;21.40;99.90;;;;;;5044846;28;20040;-50
2023/04/02 10:36:02;;;;;;;0.47;0.47;;;21.10;99.90;;;;;;5040602;28;20021;-49
2023/04/02 10:38:34;;;;;;;0.50;0.50;;;20.80;99.90;;;;;;5063593;28;20050;-52
2023/04/02 10:41:05;;;;;;;0.50;0.50;;;21.30;99.90;;;;;;5034660;28;20033;-49
2023/04/02 10:43:52;;;;;;;0.32;0.32;;;21.50;99.90;;;;;;5075877;28;20450;-49
2023/04/02 10:46:35;;;;;;;1.25;0.40;;;21.40;99.90;;;;;;5093673;28;20028;-51
2023/04/02 10:49:16;;;;;;;0.52;0.52;;;;;;;;;;5084391;28;20110;-52
2023/04/02 10:51:49;;;;;;;0.30;0.30;;;22.30;99.80;;;;;;5090373;28;20039;-52
2023/04/02 10:54:22;;;;;;;0.43;0.40;;;;;;;;;;5095913;28;20522;-51
2023/04/02 10:56:51;;;;;;;0.15;0.15;;;23.60;99.90;;;;;;5090687;28;20384;-57
2023/04/02 10:59:23;;;;;;;0.43;0.43;;;22.60;98.90;;;;;;5091468;28;20205;-57
2023/04/02 11:01:50;;;;;;;0.43;0.43;;;22.30;99.00;;;;;;5089465;28;20032;-47
2023/04/02 11:04:23;;;;;;;0.35;0.28;;;22.60;98.10;;;;;;5090761;28;20380;-50
2023/04/02 11:07:01;;;;;;;0.57;0.57;;;22.60;98.20;;;;;;5089806;28;20475;-53
2023/04/02 11:09:30;;;;;;;0.65;0.55;;;22.60;98.10;;;;;;5042376;28;20045;-53
2023/04/02 11:11:59;;;;;;;0.50;0.50;;;22.10;96.90;;;;;;5012790;28;20967;-53
2023/04/02 11:14:27;;;;;;;1.83;0.50;;;22.80;97.10;;;;;;5021734;28;20052;-55
2023/04/02 11:16:57;;;;;;;0.38;0.30;;;22.70;97.40;;;;;;4998606;28;20029;-51
2023/04/02 11:19:23;;;;;;;0.30;0.22;;;23.30;97.90;;;;;;4995878;28;20068;-51
2023/04/02 11:22:00;;;;;;;0.30;0.30;;;22.80;97.30;;;;;;4994971;28;20065;-53
2023/04/02 11:24:35;;;;;;;0.40;0.30;;;22.10;97.70;;;;;;5002983;28;20042;-51
2023/04/02 11:27:10;;;;;;;0.28;0.28;;;21.30;97.60;;;;;;5000352;28;20033;-50
2023/04/02 11:30:02;;;;;;;0.30;0.30;;;21.00;97.50;;;;;;4987810;28;20541;-51
2023/04/02 11:32:35;;;;;;;;;;;21.70;97.50;;;;;;4939527;29;20048;-51
2023/04/02 11:35:23;;;;;;;0.25;0.25;;;22.30;96.80;;;;;;4943921;29;20461;-53
2023/04/02 11:37:49;;;;;;;0.30;0.30;;;21.60;96.20;;;;;;4950743;29;20153;-51
2023/04/02 11:40:15;;;;;;;0.30;0.30;;;21.70;96.20;;;;;;4952177;28;20400;-51
2023/04/02 11:42:48;;;;;;;0.30;0.30;;;22.40;96.40;;;;;;4951541;29;20043;-51
2023/04/02 11:45:20;;;;;;;0.30;0.30;;;21.90;96.30;;;;;;4951011;29;20035;-51
2023/04/02 11:48:00;;;;;;;0.47;0.45;;;22.50;96.70;;;;;;4985514;28;20042;-51
2023/04/02 11:50:36;;;;;;;0.30;0.30;;;22.80;96.30;;;;;;4990159;28;20509;-51
2023/04/02 11:53:11;;;;;;;0.63;0.32;;;22.70;96.50;;;;;;4983477;28;20030;-52
2023/04/02 11:55:39;;;;;;;0.30;0.30;;;22.60;96.80;;;;;;4989736;28;20368;-51
2023/04/02 11:58:10;;;;;;;0.47;0.40;;;23.30;95.30;;;;;;4990664;28;20043;-51
2023/04/02 12:00:45;;;;;;;0.38;0.28;;;;;;;;;;4974034;28;20035;-51
2023/04/02 12:03:12;;;;;;;1.10;0.30;;;24.00;99.90;;;;;;4989700;28;20034;-51
2023/04/02 12:06:24;;;;;;;0.40;0.40;;;23.70;96.00;;;;;;4990052;28;20609;-52
2023/04/02 12:09:26;;;;;;;0.30;0.30;;;23.60;97.10;;;;;;4963208;28;20037;-52
2023/04/02 12:11:55;;;;;;;0.20;0.20;;;24.00;95.00;;;;;;5009998;28;20474;-51
2023/04/02 12:14:41;;;;;;;1.05;0.32;;;23.00;94.70;;;;;;5010776;28;20500;-51
2023/04/02 12:17:30;;;;;;;0.10;0.10;;;23.40;95.30;;;;;;5023080;28;20161;-51
2023/04/02 12:20:07;;;;;;;0.30;0.30;;;22.70;94.90;;;;;;5010273;28;20041;-52
2023/04/02 12:22:35;;;;;;;0.30;0.30;;;22.50;94.60;;;;;;5010334;28;20026;-52
2023/04/02 12:25:06;;;;;;;0.20;0.20;;;22.30;95.50;;;;;;5014407;28;20077;-51
2023/04/02 12:27:36;;;;;;;0.50;0.50;;;21.70;95.20;;;;;;5008577;28;20025;-53
2023/04/02 12:30:22;;;;;;;0.30;0.30;;;21.70;96.30;;;;;;5011351;28;20037;-52
2023/04/02 12:32:48;;;;;;;0.30;0.30;;;22.40;97.10;;;;;;5013638;28;20084;-50
2023/04/02 12:35:41;;;;;;;0.30;0.30;;;22.60;96.40;;;;;;5013765;28;20030;-51
2023/04/02 12:38:29;;;;;;;0.22;0.22;;;22.90;95.50;;;;;;5004085;28;20034;-53
2023/04/02 12:41:02;;;;;;;0.38;0.38;;;22.30;96.10;;;;;;5013806;28;20026;-51
2023/04/02 12:43:36;;;;;;;0.40;0.30;;;22.20;96.70;;;;;;5023033;28;20038;-51
2023/04/02 12:46:05;;;;;;;0.38;0.38;;;22.80;96.00;;;;;;5032940;28;20120;-51
2023/04/02 12:48:32;;;;;;;0.30;0.30;;;23.20;95.10;;;;;;5048220;28;20078;-52
2023/04/02 12:50:59;;;;;;;0.40;0.40;;;22.50;94.60;;;;;;5016509;28;20064;-51
2023/04/02 12:53:27;;;;;;;0.47;0.47;;;23.00;93.80;;;;;;5044501;28;20028;-51
2023/04/02 12:55:53;;;;;;;0.43;0.40;;;22.60;94.90;;;;;;5037207;28;20044;-51
2023/04/02 12:58:28;;;;;;;0.30;0.30;;;22.60;95.00;;;;;;5041139;28;20025;-51
2023/04/02 13:01:17;;;;;;;0.13;0.13;;;22.40;93.80;;;;;;5037264;28;20468;-52
2023/04/02 13:04:04;;;;;;;0.40;0.40;;;22.00;93.90;;;;;;5038194;28;20038;-50
2023/04/02 13:06:31;;;;;;;0.20;0.20;;;22.50;95.40;;;;;;5024562;28;20026;-51
2023/04/02 13:08:58;;;;;;;0.38;0.30;;;22.50;94.10;;;;;;5042404;28;20136;-52
2023/04/02 13:11:40;;;;;;;0.28;0.28;;;22.40;94.50;;;;;;5037878;28;20020;-51
2023/04/02 13:14:16;;;;;;;0.40;0.40;;;22.10;94.30;;;;;;5035962;28;20029;-51
2023/04/02 13:16:42;;;;;;;0.30;0.30;;;22.50;94.90;;;;;;5034589;28;20033;-52
2023/04/02 13:19:30;;;;;;;0.47;0.47;;;22.30;94.50;;;;;;5043875;28;20091;-51
2023/04/02 13:22:01;;;;;;;0.57;0.47;;;22.10;95.00;;;;;;5034061;28;20188;-51
2023/04/02 13:24:30;;;;;;;0.30;0.30;;;22.10;95.60;;;;;;5035078;28;20053;-52
2023/04/02 13:27:01;;;;;;;0.47;0.40;;;22.10;96.10;;;;;;5038124;28;20030;-52
2023/04/02 13:29:28;;;;;;;0.40;0.40;;;20.70;96.00;;;;;;5040402;28;20108;-52
2023/04/02 13:31:59;;;;;;;0.63;0.63;;;19.90;97.20;;;;;;5038870;28;20036;-51
2023/04/02 13:34:26;;;;;;;0.40;0.30;;;20.50;98.90;;;;;;5047924;28;20024;-51
2023/04/02 13:36:52;;;;;;;0.20;0.20;;;20.40;98.20;;;;;;5033426;28;20029;-50
2023/04/02 13:39:19;;;;;;;0.35;0.30;;;20.50;97.30;;;;;;5036790;28;20122;-50
2023/04/02 13:41:50;;;;;;;0.50;0.30;;;20.00;97.70;;;;;;5066820;28;20038;-50
2023/04/02 13:44:22;;;;;;;0.30;0.30;;;19.60;97.50;;;;;;5042823;28;20040;-51
2023/04/02 13:46:48;;;;;;;0.20;0.20;;;19.70;97.50;;;;;;5036003;28;20036;-51
2023/04/02 13:49:14;;;;;;;0.20;0.20;;;20.30;96.70;;;;;;5022803;28;20120;-50